createdAt,value
2023-04-27T00:00:11.801Z,2.30
2023-04-27T00:03:00.307Z,2.40
2023-04-27T00:05:28.873Z,2.20
2023-04-27T00:07:57.242Z,2.10
2023-04-27T00:10:25.682Z,2.30
2023-04-27T00:12:54.128Z,2.10
2023-04-27T00:15:22.675Z,2.10
2023-04-27T00:17:51.569Z,2.10
2023-04-27T00:20:20.909Z,2.40
2023-04-27T00:22:49.621Z,2.40
2023-04-27T00:25:18.004Z,2.50
2023-04-27T00:27:46.504Z,2.40
2023-04-27T00:30:15.040Z,2.90
2023-04-27T00:32:43.476Z,2.50
2023-04-27T00:35:12.080Z,2.30
2023-04-27T00:37:40.572Z,2.90
2023-04-27T00:40:09.489Z,2.20
2023-04-27T00:42:38.231Z,2.30
2023-04-27T00:45:07.288Z,1.90
2023-04-27T00:47:35.816Z,2.20
2023-04-27T00:50:04.643Z,2.40
2023-04-27T00:52:33.093Z,2.00
2023-04-27T00:55:04.432Z,2.40
2023-04-27T00:57:33.999Z,2.10
2023-04-27T01:00:06.820Z,2.30
2023-04-27T01:02:37.042Z,2.40
2023-04-27T01:05:06.073Z,2.20
2023-04-27T01:07:37.861Z,2.30
2023-04-27T01:10:07.828Z,2.50
2023-04-27T01:12:37.039Z,2.50
2023-04-27T01:15:07.409Z,2.10
2023-04-27T01:17:36.092Z,2.40
2023-04-27T01:20:07.750Z,2.10
2023-04-27T01:22:38.077Z,2.20
2023-04-27T01:25:08.340Z,2.30
2023-04-27T01:27:36.676Z,2.30
2023-04-27T01:30:06.580Z,2.10
2023-04-27T01:32:37.853Z,2.40
2023-04-27T01:35:07.663Z,2.50
2023-04-27T01:37:36.305Z,2.20
2023-04-27T01:40:06.840Z,2.50
2023-04-27T01:42:35.598Z,2.30
2023-04-27T01:45:04.397Z,2.80
2023-04-27T01:47:33.655Z,2.40
2023-04-27T01:50:02.166Z,2.60
2023-04-27T01:52:30.599Z,2.30
2023-04-27T01:54:59.022Z,2.70
2023-04-27T01:57:27.545Z,2.70
2023-04-27T01:59:57.082Z,2.50
2023-04-27T02:02:25.700Z,2.70
2023-04-27T02:04:54.495Z,2.70
2023-04-27T02:07:23.223Z,2.60
2023-04-27T02:09:51.677Z,2.80
2023-04-27T02:12:20.071Z,2.50
2023-04-27T02:14:48.474Z,2.50
2023-04-27T02:17:16.911Z,2.70
2023-04-27T02:19:45.366Z,2.40
2023-04-27T02:22:13.812Z,2.60
2023-04-27T02:24:42.232Z,2.50
2023-04-27T02:27:10.634Z,2.50
2023-04-27T02:29:39.590Z,2.50
2023-04-27T02:32:08.436Z,2.50
2023-04-27T02:34:36.989Z,2.80
2023-04-27T02:37:05.432Z,2.50
2023-04-27T02:39:33.909Z,2.70
2023-04-27T02:42:03.426Z,2.60
2023-04-27T02:44:31.806Z,2.60
2023-04-27T02:47:00.411Z,2.80
2023-04-27T02:49:28.926Z,2.20
2023-04-27T02:51:57.324Z,2.70
2023-04-27T02:54:25.794Z,3.00
2023-04-27T02:56:54.236Z,2.80
2023-04-27T02:59:22.665Z,3.00
2023-04-27T03:01:51.167Z,2.80
2023-04-27T03:04:20.385Z,3.30
2023-04-27T03:06:50.115Z,3.60
2023-04-27T03:09:18.630Z,3.00
2023-04-27T03:11:47.026Z,2.60
2023-04-27T03:14:15.434Z,2.60
2023-04-27T03:16:43.978Z,3.00
2023-04-27T03:19:15.065Z,3.00
2023-04-27T03:21:43.837Z,3.30
2023-04-27T03:24:12.227Z,4.60
2023-04-27T03:26:40.756Z,3.20
2023-04-27T03:29:09.108Z,2.60
2023-04-27T03:31:37.642Z,3.10
2023-04-27T03:34:06.116Z,2.90
2023-04-27T03:36:34.626Z,3.40
2023-04-27T03:39:03.342Z,3.20
2023-04-27T03:41:31.761Z,3.10
2023-04-27T03:44:00.230Z,2.60
2023-04-27T03:46:28.955Z,3.20
2023-04-27T03:48:57.560Z,3.30
2023-04-27T03:51:27.159Z,3.80
2023-04-27T03:53:55.851Z,5.40
2023-04-27T03:56:24.490Z,4.20
2023-04-27T03:58:53.033Z,3.50
2023-04-27T04:01:23.299Z,3.30
2023-04-27T04:03:52.328Z,3.10
2023-04-27T04:06:20.965Z,3.80
2023-04-27T04:08:49.332Z,3.10
2023-04-27T04:11:18.086Z,3.40
2023-04-27T04:13:47.559Z,4.20
2023-04-27T04:16:16.263Z,4.00
2023-04-27T04:18:44.814Z,3.20
2023-04-27T04:21:13.257Z,3.30
2023-04-27T04:23:41.740Z,3.30
2023-04-27T04:26:10.219Z,4.70
2023-04-27T04:28:38.805Z,3.70
2023-04-27T04:31:09.826Z,3.00
2023-04-27T04:33:38.481Z,2.90
2023-04-27T04:36:07.248Z,3.20
2023-04-27T04:38:35.888Z,3.80
2023-04-27T04:41:04.451Z,3.90
2023-04-27T04:43:34.549Z,3.60
2023-04-27T04:46:06.629Z,5.30
2023-04-27T04:48:35.837Z,3.80
2023-04-27T04:51:07.408Z,2.90
2023-04-27T04:53:36.583Z,3.40
2023-04-27T04:56:14.928Z,3.60
2023-04-27T04:58:43.407Z,2.70
2023-04-27T05:01:11.974Z,3.10
2023-04-27T05:03:40.596Z,3.60
2023-04-27T05:06:09.194Z,2.30
2023-04-27T05:08:37.699Z,2.10
2023-04-27T05:11:06.177Z,2.10
2023-04-27T05:13:35.764Z,2.40
2023-04-27T05:16:06.431Z,2.90
2023-04-27T05:18:36.307Z,2.60
2023-04-27T05:21:04.908Z,3.10
2023-04-27T05:23:33.536Z,3.20
2023-04-27T05:26:24.100Z,4.20
2023-04-27T05:28:52.522Z,4.40
2023-04-27T05:31:20.955Z,4.50
2023-04-27T05:33:49.435Z,4.20
2023-04-27T05:36:17.875Z,4.50
2023-04-27T05:38:46.217Z,4.70
2023-04-27T05:41:14.675Z,4.20
2023-04-27T05:43:43.167Z,5.70
2023-04-27T05:46:15.388Z,4.90
2023-04-27T05:48:44.014Z,8.10
2023-04-27T05:51:12.773Z,5.10
2023-04-27T05:53:43.647Z,4.80
2023-04-27T05:56:12.328Z,4.70
2023-04-27T05:58:41.401Z,5.20
2023-04-27T06:01:09.910Z,5.70
2023-04-27T06:03:38.490Z,5.80
2023-04-27T06:06:07.179Z,4.30
2023-04-27T06:08:37.670Z,4.30
2023-04-27T06:11:06.750Z,4.20
2023-04-27T06:13:35.275Z,5.10
2023-04-27T06:16:03.836Z,5.50
2023-04-27T06:18:32.174Z,5.80
2023-04-27T06:21:02.158Z,4.80
2023-04-27T06:23:30.776Z,4.70
2023-04-27T06:25:59.448Z,4.60
2023-04-27T06:28:27.983Z,5.50
2023-04-27T06:30:56.415Z,5.30
2023-04-27T06:33:24.894Z,5.20
2023-04-27T06:35:53.281Z,5.50
2023-04-27T06:38:22.461Z,4.10
2023-04-27T06:40:52.505Z,4.20
2023-04-27T06:43:21.256Z,5.80
2023-04-27T06:45:49.711Z,4.90
2023-04-27T06:48:18.260Z,4.20
2023-04-27T06:50:47.137Z,4.80
2023-04-27T06:53:17.484Z,4.30
2023-04-27T06:55:48.241Z,5.40
2023-04-27T06:58:17.089Z,5.00
2023-04-27T07:00:45.525Z,4.40
2023-04-27T07:03:14.787Z,4.40
2023-04-27T07:05:43.378Z,4.90
2023-04-27T07:08:13.042Z,4.40
2023-04-27T07:10:41.388Z,4.80
2023-04-27T07:13:11.249Z,5.10
2023-04-27T07:15:40.409Z,4.00
2023-04-27T07:18:08.929Z,4.30
2023-04-27T07:20:38.471Z,4.40
2023-04-27T07:23:07.470Z,4.30
2023-04-27T07:25:36.021Z,3.70
2023-04-27T07:28:04.550Z,4.00
2023-04-27T07:30:36.420Z,4.80
2023-04-27T07:33:05.543Z,4.20
2023-04-27T07:35:34.070Z,3.80
2023-04-27T07:38:03.330Z,3.40
2023-04-27T07:40:32.924Z,3.80
2023-04-27T07:43:01.424Z,4.10
2023-04-27T07:45:33.786Z,5.60
2023-04-27T07:48:02.602Z,4.50
2023-04-27T07:50:32.223Z,5.60
2023-04-27T07:53:00.552Z,4.80
2023-04-27T07:55:29.049Z,4.00
2023-04-27T07:57:57.666Z,4.70
2023-04-27T08:00:26.971Z,6.50
2023-04-27T08:02:56.260Z,3.50
2023-04-27T08:05:25.405Z,3.90
2023-04-27T08:07:54.658Z,3.70
2023-04-27T08:10:23.654Z,3.50
2023-04-27T08:12:52.590Z,3.30
2023-04-27T08:15:21.573Z,3.70
2023-04-27T08:18:01.441Z,4.20
2023-04-27T08:20:29.843Z,4.60
2023-04-27T08:22:58.276Z,3.40
2023-04-27T08:25:27.158Z,4.30
2023-04-27T08:27:55.674Z,3.30
2023-04-27T08:30:24.202Z,3.20
2023-04-27T08:32:52.785Z,4.70
2023-04-27T08:35:21.308Z,3.90
2023-04-27T08:37:50.036Z,3.50
2023-04-27T08:40:21.403Z,3.30
2023-04-27T08:42:58.429Z,3.30
2023-04-27T08:45:28.240Z,3.40
2023-04-27T08:47:57.325Z,3.50
2023-04-27T08:50:25.929Z,3.70
2023-04-27T08:52:54.415Z,3.30
2023-04-27T08:55:23.885Z,4.10
2023-04-27T09:01:08.837Z,3.30
2023-04-27T09:03:38.236Z,3.10
2023-04-27T09:06:07.547Z,3.50
2023-04-27T09:08:46.547Z,3.80
2023-04-27T09:11:15.994Z,3.00
2023-04-27T09:13:45.645Z,3.20
2023-04-27T09:16:15.098Z,2.70
2023-04-27T09:18:43.991Z,3.30
2023-04-27T09:21:33.176Z,2.90
2023-04-27T09:24:14.162Z,2.70
2023-04-27T09:27:10.356Z,2.70
2023-04-27T09:29:39.265Z,2.90
2023-04-27T09:32:18.056Z,2.80
2023-04-27T09:34:46.968Z,2.80
2023-04-27T09:37:16.696Z,3.10
2023-04-27T09:39:46.155Z,3.70
2023-04-27T09:42:16.096Z,3.10
2023-04-27T09:44:44.463Z,2.70
2023-04-27T09:47:14.164Z,2.80
2023-04-27T09:49:42.568Z,3.60
2023-04-27T09:52:11.077Z,2.60
2023-04-27T09:54:40.056Z,3.10
2023-04-27T09:57:52.803Z,3.70
2023-04-27T10:00:47.459Z,5.50
2023-04-27T10:03:33.061Z,5.00
2023-04-27T10:06:07.842Z,3.40
2023-04-27T10:08:36.691Z,3.00
2023-04-27T10:11:19.476Z,2.80
2023-04-27T10:13:55.654Z,3.40
2023-04-27T10:16:24.672Z,3.10
2023-04-27T10:18:55.821Z,3.10
2023-04-27T10:21:24.183Z,3.10
2023-04-27T10:23:53.402Z,3.30
2023-04-27T10:26:26.387Z,3.10
2023-04-27T10:29:01.094Z,3.00
2023-04-27T10:31:30.192Z,3.20
2023-04-27T10:34:11.929Z,2.90
2023-04-27T10:36:41.363Z,3.40
2023-04-27T10:39:18.672Z,3.70
2023-04-27T10:41:55.283Z,3.20
2023-04-27T10:44:29.559Z,3.60
2023-04-27T10:47:00.179Z,3.50
2023-04-27T10:49:29.987Z,3.70
2023-04-27T10:52:00.044Z,3.60
2023-04-27T10:54:29.628Z,3.60
2023-04-27T10:57:11.708Z,3.30
2023-04-27T10:59:54.762Z,3.50
2023-04-27T11:02:27.777Z,3.80
2023-04-27T11:04:56.967Z,3.80
2023-04-27T11:07:27.858Z,3.90
2023-04-27T11:09:56.444Z,3.30
2023-04-27T11:12:24.882Z,3.40
2023-04-27T11:14:59.245Z,3.20
2023-04-27T11:17:32.457Z,3.20
2023-04-27T11:20:01.050Z,3.60
2023-04-27T11:22:30.301Z,3.60
2023-04-27T11:24:58.922Z,3.80
2023-04-27T11:27:47.825Z,3.30
2023-04-27T11:30:21.631Z,4.20
2023-04-27T11:32:51.290Z,3.70
2023-04-27T11:35:19.784Z,3.60
2023-04-27T11:38:15.803Z,3.20
2023-04-27T11:40:48.166Z,3.70
2023-04-27T11:43:16.681Z,3.50
2023-04-27T11:45:45.232Z,3.70
2023-04-27T11:48:17.030Z,3.50
2023-04-27T11:50:49.193Z,3.50
2023-04-27T11:53:18.823Z,3.40
2023-04-27T11:55:52.862Z,3.60
2023-04-27T11:58:21.553Z,3.20
2023-04-27T12:00:50.045Z,3.10
2023-04-27T12:03:18.683Z,3.70
2023-04-27T12:05:53.369Z,3.60
2023-04-27T12:08:21.913Z,3.80
2023-04-27T12:10:53.687Z,4.10
2023-04-27T12:13:22.097Z,4.50
2023-04-27T12:15:50.879Z,3.60
2023-04-27T12:18:19.264Z,3.40
2023-04-27T12:20:47.736Z,3.00
2023-04-27T12:23:16.293Z,3.50
2023-04-27T12:25:44.728Z,2.80
2023-04-27T12:28:19.140Z,2.90
2023-04-27T12:30:47.716Z,2.90
2023-04-27T12:33:16.910Z,3.40
2023-04-27T12:35:45.401Z,4.30
2023-04-27T12:38:13.832Z,4.50
2023-04-27T12:40:42.286Z,3.20
2023-04-27T12:43:10.870Z,2.90
2023-04-27T12:45:39.289Z,3.40
2023-04-27T12:48:08.027Z,3.90
2023-04-27T12:50:38.172Z,3.60
2023-04-27T12:53:06.750Z,3.10
2023-04-27T12:55:35.297Z,2.60
2023-04-27T12:58:05.051Z,2.60
2023-04-27T13:00:34.522Z,3.00
2023-04-27T13:03:03.058Z,5.40
2023-04-27T13:05:32.280Z,3.60
2023-04-27T13:08:00.875Z,4.00
2023-04-27T13:10:29.860Z,4.10
2023-04-27T13:12:59.814Z,5.80
2023-04-27T13:15:28.733Z,4.00
2023-04-27T13:17:59.160Z,4.20
2023-04-27T13:20:27.885Z,3.10
2023-04-27T13:22:56.563Z,4.30
2023-04-27T13:25:24.977Z,3.40
2023-04-27T13:27:54.177Z,3.90
2023-04-27T13:30:22.865Z,3.70
2023-04-27T13:32:52.801Z,3.50
2023-04-27T13:35:21.475Z,4.20
2023-04-27T13:37:50.058Z,3.20
2023-04-27T13:40:18.487Z,2.70
2023-04-27T13:42:46.829Z,2.80
2023-04-27T13:45:17.462Z,2.50
2023-04-27T13:47:46.118Z,2.70
2023-04-27T13:50:14.613Z,3.60
2023-04-27T13:52:42.999Z,3.30
2023-04-27T13:55:14.907Z,3.30
2023-04-27T13:57:43.371Z,2.80
2023-04-27T14:00:13.131Z,2.50
2023-04-27T14:02:42.022Z,2.60
2023-04-27T14:05:10.618Z,3.40
2023-04-27T14:07:38.974Z,2.40
2023-04-27T14:10:08.345Z,3.20
2023-04-27T14:12:36.899Z,2.40
2023-04-27T14:15:05.893Z,2.20
2023-04-27T14:17:34.196Z,2.20
2023-04-27T14:20:03.216Z,3.50
2023-04-27T14:22:31.847Z,5.00
2023-04-27T14:25:00.792Z,4.20
2023-04-27T14:27:29.826Z,2.60
2023-04-27T14:29:58.354Z,3.10
2023-04-27T14:32:26.930Z,2.70
2023-04-27T14:34:55.493Z,2.70
2023-04-27T14:37:24.030Z,2.30
2023-04-27T14:39:53.425Z,2.70
2023-04-27T14:42:21.969Z,2.10
2023-04-27T14:44:50.418Z,2.80
2023-04-27T14:47:20.426Z,2.60
2023-04-27T14:49:48.940Z,2.20
2023-04-27T14:52:17.369Z,2.40
2023-04-27T14:54:45.964Z,3.30
2023-04-27T14:57:14.464Z,3.50
2023-04-27T14:59:42.883Z,3.00
2023-04-27T15:02:11.334Z,2.50
2023-04-27T15:04:40.249Z,2.00
2023-04-27T15:07:09.879Z,2.50
2023-04-27T15:09:38.325Z,3.10
2023-04-27T15:12:08.149Z,4.70
2023-04-27T15:14:36.583Z,8.30
2023-04-27T15:17:05.033Z,3.70
2023-04-27T15:19:33.425Z,2.70
2023-04-27T15:22:01.967Z,2.50
2023-04-27T15:24:30.444Z,4.40
2023-04-27T15:26:58.891Z,2.50
2023-04-27T15:29:27.266Z,2.60
2023-04-27T15:31:58.614Z,3.10
2023-04-27T15:34:27.062Z,3.60
2023-04-27T15:36:55.491Z,2.80
2023-04-27T15:39:23.986Z,2.80
2023-04-27T15:41:52.366Z,3.90
2023-04-27T15:44:20.787Z,3.00
2023-04-27T15:46:49.492Z,3.00
2023-04-27T15:49:17.905Z,3.80
2023-04-27T15:51:46.368Z,2.80
2023-04-27T15:54:14.821Z,2.90
2023-04-27T15:56:43.636Z,3.00
2023-04-27T15:59:12.370Z,2.80
2023-04-27T16:01:41.154Z,4.20
2023-04-27T16:04:10.225Z,3.60
2023-04-27T16:06:39.296Z,3.70
2023-04-27T16:09:10.573Z,3.90
2023-04-27T16:11:40.419Z,3.40
2023-04-27T16:14:09.165Z,3.80
2023-04-27T16:16:38.909Z,3.10
2023-04-27T16:19:09.017Z,2.50
2023-04-27T16:21:37.623Z,2.90
2023-04-27T16:24:06.424Z,2.80
2023-04-27T16:26:34.875Z,2.80
2023-04-27T16:29:03.515Z,2.90
2023-04-27T16:31:32.080Z,2.70
2023-04-27T16:34:00.720Z,2.90
2023-04-27T16:36:29.807Z,3.60
2023-04-27T16:38:58.200Z,4.30
2023-04-27T16:41:27.143Z,3.20
2023-04-27T16:43:55.670Z,2.90
2023-04-27T16:46:24.151Z,3.60
2023-04-27T16:48:52.644Z,3.00
2023-04-27T16:51:21.197Z,3.40
2023-04-27T16:53:50.865Z,3.40
2023-04-27T16:56:29.487Z,3.50
2023-04-27T16:58:58.310Z,3.60
2023-04-27T17:01:29.588Z,3.10
2023-04-27T17:03:59.821Z,3.10
2023-04-27T17:06:30.081Z,3.50
2023-04-27T17:08:58.968Z,4.00
2023-04-27T17:11:27.337Z,4.20
2023-04-27T17:13:55.836Z,3.60
2023-04-27T17:16:24.435Z,4.70
2023-04-27T17:18:52.970Z,3.70
2023-04-27T17:21:22.923Z,3.60
2023-04-27T17:23:53.265Z,3.40
2023-04-27T17:26:21.879Z,3.60
2023-04-27T17:28:51.320Z,3.20
2023-04-27T17:31:19.735Z,3.30
2023-04-27T17:33:48.156Z,3.40
2023-04-27T17:36:16.721Z,3.50
2023-04-27T17:38:45.114Z,4.00
2023-04-27T17:41:13.587Z,3.50
2023-04-27T17:43:42.158Z,3.70
2023-04-27T17:46:11.281Z,4.20
2023-04-27T17:48:39.960Z,3.50
2023-04-27T17:51:09.039Z,2.90
2023-04-27T17:53:37.509Z,3.60
2023-04-27T17:56:05.970Z,3.20
2023-04-27T17:58:34.482Z,3.70
2023-04-27T18:01:03.029Z,4.30
2023-04-27T18:03:31.607Z,3.60
2023-04-27T18:06:00.177Z,3.10
2023-04-27T18:08:28.596Z,3.20
2023-04-27T18:10:57.071Z,3.30
2023-04-27T18:13:25.678Z,3.90
2023-04-27T18:15:54.119Z,3.30
2023-04-27T18:18:25.276Z,4.10
2023-04-27T18:20:53.983Z,4.20
2023-04-27T18:23:25.436Z,4.00
2023-04-27T18:25:57.917Z,3.70
2023-04-27T18:28:26.280Z,3.40
2023-04-27T18:30:54.646Z,3.40
2023-04-27T18:33:23.136Z,2.90
2023-04-27T18:35:51.776Z,3.10
2023-04-27T18:38:20.185Z,3.20
2023-04-27T18:40:48.588Z,2.60
2023-04-27T18:43:17.033Z,2.90
2023-04-27T18:45:45.441Z,2.80
2023-04-27T18:48:13.861Z,2.60
2023-04-27T18:50:42.501Z,3.00
2023-04-27T18:53:11.048Z,5.00
2023-04-27T18:55:39.749Z,2.60
2023-04-27T18:58:08.311Z,2.40
2023-04-27T19:00:38.634Z,2.30
2023-04-27T19:03:08.719Z,2.60
2023-04-27T19:05:41.061Z,2.50
2023-04-27T19:08:10.238Z,2.90
2023-04-27T19:10:41.386Z,2.50
2023-04-27T19:13:10.267Z,2.90
2023-04-27T19:15:39.243Z,2.80
2023-04-27T19:18:11.010Z,2.40
2023-04-27T19:20:40.918Z,2.40
2023-04-27T19:23:12.620Z,2.90
2023-04-27T19:25:41.170Z,2.30
2023-04-27T19:28:10.522Z,2.20
2023-04-27T19:30:39.173Z,2.80
2023-04-27T19:33:07.737Z,3.50
2023-04-27T19:35:36.453Z,2.80
2023-04-27T19:38:05.043Z,2.50
2023-04-27T19:40:33.489Z,2.60
2023-04-27T19:43:01.923Z,2.50
2023-04-27T19:45:30.540Z,2.30
2023-04-27T19:47:59.036Z,2.80
2023-04-27T19:50:27.671Z,2.40
2023-04-27T19:52:56.303Z,2.40
2023-04-27T19:55:24.812Z,2.60
2023-04-27T19:57:53.225Z,2.80
2023-04-27T20:00:21.865Z,2.40
2023-04-27T20:02:53.607Z,2.60
2023-04-27T20:05:22.462Z,2.80
2023-04-27T20:07:51.258Z,2.90
2023-04-27T20:10:19.741Z,2.60
2023-04-27T20:12:56.087Z,2.60
2023-04-27T20:15:55.601Z,2.40
2023-04-27T20:18:25.242Z,2.40
2023-04-27T20:20:53.756Z,2.50
2023-04-27T20:23:22.111Z,2.40
2023-04-27T20:25:50.653Z,2.40
2023-04-27T20:28:19.136Z,2.50
2023-04-27T20:30:47.597Z,3.00
2023-04-27T20:33:16.092Z,2.20
2023-04-27T20:35:47.002Z,2.90
2023-04-27T20:38:15.414Z,2.70
2023-04-27T20:40:44.105Z,2.60
2023-04-27T20:43:13.651Z,2.60
2023-04-27T20:45:42.487Z,2.40
2023-04-27T20:48:12.067Z,2.60
2023-04-27T20:50:40.680Z,2.70
2023-04-27T20:53:09.089Z,2.50
2023-04-27T20:55:38.461Z,2.90
2023-04-27T20:58:06.862Z,2.60
2023-04-27T21:00:35.531Z,3.00
2023-04-27T21:03:04.135Z,3.10
2023-04-27T21:05:32.683Z,3.00
2023-04-27T21:08:01.135Z,3.60
2023-04-27T21:10:29.604Z,3.50
2023-04-27T21:12:58.098Z,3.40
2023-04-27T21:15:26.899Z,3.50
2023-04-27T21:17:55.454Z,3.50
2023-04-27T21:20:23.861Z,3.20
2023-04-27T21:22:52.434Z,3.40
2023-04-27T21:25:23.024Z,3.40
2023-04-27T21:27:52.087Z,3.30
2023-04-27T21:30:20.472Z,3.20
2023-04-27T21:32:49.035Z,3.40
2023-04-27T21:35:17.600Z,3.30
2023-04-27T21:37:46.162Z,3.50
2023-04-27T21:40:14.584Z,3.80
2023-04-27T21:42:42.909Z,4.40
2023-04-27T21:45:11.406Z,3.90
2023-04-27T21:47:39.874Z,4.20
2023-04-27T21:50:09.032Z,3.60
2023-04-27T21:52:37.448Z,3.40
2023-04-27T21:55:06.033Z,3.40
2023-04-27T21:57:34.521Z,2.90
2023-04-27T22:00:08.775Z,2.80
2023-04-27T22:02:57.419Z,3.10
2023-04-27T22:05:29.430Z,2.80
2023-04-27T22:07:58.059Z,2.80
2023-04-27T22:10:26.397Z,3.10
2023-04-27T22:12:54.844Z,3.00
2023-04-27T22:15:23.351Z,2.50
2023-04-27T22:17:51.753Z,2.90
2023-04-27T22:20:21.307Z,2.90
2023-04-27T22:22:49.722Z,2.90
2023-04-27T22:25:19.091Z,3.10
2023-04-27T22:27:47.606Z,3.40
2023-04-27T22:30:16.167Z,3.10
2023-04-27T22:32:45.044Z,3.00
2023-04-27T22:35:25.824Z,3.00
2023-04-27T22:37:56.446Z,2.80
2023-04-27T22:40:25.121Z,3.00
2023-04-27T22:42:55.154Z,2.90
2023-04-27T22:45:23.881Z,3.00
2023-04-27T22:47:52.344Z,2.50
2023-04-27T22:50:21.013Z,2.80
2023-04-27T22:52:50.234Z,3.00
2023-04-27T22:55:18.906Z,3.10
2023-04-27T22:57:47.250Z,2.80
2023-04-27T23:00:16.357Z,3.20
2023-04-27T23:02:44.910Z,3.50
2023-04-27T23:05:13.451Z,2.70
2023-04-27T23:07:43.021Z,2.90
2023-04-27T23:10:13.061Z,2.80
2023-04-27T23:12:41.774Z,2.80
2023-04-27T23:15:10.905Z,2.90
2023-04-27T23:17:39.382Z,2.80
2023-04-27T23:20:26.641Z,3.20
2023-04-27T23:22:56.400Z,3.00
2023-04-27T23:25:24.847Z,2.80
2023-04-27T23:27:53.347Z,2.90
2023-04-27T23:30:22.457Z,2.90
2023-04-27T23:32:51.104Z,3.20
2023-04-27T23:35:19.611Z,2.90
2023-04-27T23:37:47.974Z,3.20
2023-04-27T23:40:16.680Z,3.90
2023-04-27T23:42:45.048Z,3.90
2023-04-27T23:45:13.573Z,3.90
2023-04-27T23:47:42.364Z,4.30
2023-04-27T23:50:10.962Z,4.30
2023-04-27T23:52:39.286Z,3.80
2023-04-27T23:55:08.217Z,4.10
2023-04-27T23:57:36.925Z,3.70
